createdAt,value
2019-02-18T00:01:24.350Z,75.90
2019-02-18T00:03:54.682Z,76.00
2019-02-18T00:06:25.046Z,77.30
2019-02-18T00:08:55.383Z,76.80
2019-02-18T00:11:25.835Z,77.70
2019-02-18T00:13:56.166Z,76.80
2019-02-18T00:16:27.738Z,77.50
2019-02-18T00:18:58.278Z,77.20
2019-02-18T00:21:28.653Z,76.70
2019-02-18T00:23:59.003Z,76.40
2019-02-18T00:26:29.370Z,76.20
2019-02-18T00:28:59.685Z,77.10
2019-02-18T00:31:30.343Z,76.00
2019-02-18T00:34:00.797Z,75.50
2019-02-18T00:36:31.445Z,76.90
2019-02-18T00:39:01.902Z,76.60
2019-02-18T00:41:33.866Z,75.70
2019-02-18T00:44:04.412Z,77.30
2019-02-18T00:46:35.911Z,76.90
2019-02-18T00:49:06.321Z,77.40
2019-02-18T00:51:36.711Z,76.30
2019-02-18T00:54:07.171Z,76.20
2019-02-18T00:56:37.714Z,75.90
2019-02-18T00:59:08.058Z,76.70
2019-02-18T01:01:38.388Z,78.00
2019-02-18T01:04:08.741Z,77.70
2019-02-18T01:06:39.092Z,77.10
2019-02-18T01:09:09.448Z,76.90
2019-02-18T01:11:39.766Z,76.40
2019-02-18T01:14:12.195Z,76.30
2019-02-18T01:16:42.565Z,75.90
2019-02-18T01:19:13.337Z,76.40
2019-02-18T01:21:43.657Z,77.80
2019-02-18T01:24:14.025Z,76.90
2019-02-18T01:26:44.360Z,77.00
2019-02-18T01:29:14.720Z,76.60
2019-02-18T01:31:45.115Z,76.60
2019-02-18T01:34:15.461Z,77.30
2019-02-18T01:36:45.803Z,78.50
2019-02-18T01:39:17.603Z,78.20
2019-02-18T01:41:48.006Z,77.40
2019-02-18T01:44:18.357Z,77.30
2019-02-18T01:46:48.683Z,77.10
2019-02-18T01:49:19.035Z,76.80
2019-02-18T01:51:49.369Z,77.90
2019-02-18T01:54:19.828Z,78.10
2019-02-18T01:56:50.154Z,78.10
2019-02-18T01:59:20.562Z,77.10
2019-02-18T02:01:51.186Z,77.10
2019-02-18T02:04:21.614Z,78.10
2019-02-18T02:06:51.963Z,76.90
2019-02-18T02:09:22.325Z,77.60
2019-02-18T02:11:53.217Z,77.10
2019-02-18T02:14:23.692Z,78.00
2019-02-18T02:16:54.263Z,79.40
2019-02-18T02:19:24.648Z,78.80
2019-02-18T02:21:54.974Z,79.80
2019-02-18T02:24:25.372Z,79.50
2019-02-18T02:26:55.789Z,78.70
2019-02-18T02:29:26.181Z,78.40
2019-02-18T02:31:56.488Z,79.80
2019-02-18T02:34:26.884Z,80.10
2019-02-18T02:36:57.250Z,80.80
2019-02-18T02:39:27.663Z,79.90
2019-02-18T02:41:58.049Z,79.60
2019-02-18T02:44:28.476Z,79.20
2019-02-18T02:46:58.849Z,79.50
2019-02-18T02:49:29.228Z,79.20
2019-02-18T02:51:59.558Z,78.60
2019-02-18T02:54:30.021Z,79.20
2019-02-18T02:57:00.419Z,79.50
2019-02-18T02:59:31.095Z,79.10
2019-02-18T03:02:01.421Z,80.70
2019-02-18T03:04:31.840Z,83.30
2019-02-18T03:07:02.375Z,81.70
2019-02-18T03:09:32.898Z,80.30
2019-02-18T03:12:03.233Z,80.30
2019-02-18T03:14:33.610Z,80.10
2019-02-18T03:17:04.097Z,79.50
2019-02-18T03:19:35.837Z,80.50
2019-02-18T03:22:06.380Z,80.10
2019-02-18T03:24:36.722Z,80.10
2019-02-18T03:27:07.093Z,79.70
2019-02-18T03:30:17.228Z,79.70
2019-02-18T03:32:51.784Z,80.60
2019-02-18T03:35:22.179Z,79.70
2019-02-18T03:37:52.615Z,79.80
2019-02-18T03:40:22.994Z,79.50
2019-02-18T03:42:53.458Z,80.10
2019-02-18T03:45:23.826Z,82.20
2019-02-18T03:47:54.361Z,83.20
2019-02-18T03:50:24.708Z,83.40
2019-02-18T03:52:55.025Z,81.30
2019-02-18T03:55:25.378Z,80.50
2019-02-18T03:57:55.745Z,80.90
2019-02-18T04:00:26.258Z,80.40
2019-02-18T04:02:56.813Z,79.90
2019-02-18T04:05:27.178Z,80.10
2019-02-18T04:07:57.496Z,80.10
2019-02-18T04:10:27.829Z,80.10
2019-02-18T04:12:58.352Z,80.50
2019-02-18T04:15:28.699Z,81.00
2019-02-18T04:17:59.049Z,80.90
2019-02-18T04:20:29.472Z,80.30
2019-02-18T04:22:59.802Z,80.30
2019-02-18T04:25:30.189Z,80.00
2019-02-18T04:28:00.513Z,80.40
2019-02-18T04:30:30.879Z,80.60
2019-02-18T04:33:01.266Z,80.30
2019-02-18T04:35:31.669Z,80.00
2019-02-18T04:38:03.061Z,79.90
2019-02-18T04:40:33.405Z,80.20
2019-02-18T04:43:04.822Z,80.20
2019-02-18T04:45:35.175Z,80.70
2019-02-18T04:48:05.505Z,80.60
2019-02-18T04:50:35.954Z,81.30
2019-02-18T04:53:06.308Z,81.10
2019-02-18T04:55:36.653Z,82.10
2019-02-18T04:58:06.990Z,82.60
2019-02-18T05:00:37.406Z,81.50
2019-02-18T05:03:07.807Z,81.40
2019-02-18T05:05:38.273Z,82.50
2019-02-18T05:08:08.648Z,81.20
2019-02-18T05:10:39.134Z,80.80
2019-02-18T05:13:09.610Z,80.50
2019-02-18T05:15:40.470Z,80.80
2019-02-18T05:18:11.244Z,80.60
2019-02-18T05:20:41.622Z,80.40
2019-02-18T05:23:12.290Z,80.70
2019-02-18T05:25:42.676Z,80.50
2019-02-18T05:28:13.502Z,80.40
2019-02-18T05:30:43.800Z,81.00
2019-02-18T05:33:14.176Z,80.60
2019-02-18T05:35:44.526Z,81.00
2019-02-18T05:38:15.147Z,81.40
2019-02-18T05:40:45.534Z,80.70
2019-02-18T05:43:16.454Z,80.30
2019-02-18T05:45:48.905Z,80.10
2019-02-18T05:48:19.389Z,80.10
2019-02-18T05:50:50.377Z,80.50
2019-02-18T05:53:22.620Z,80.70
2019-02-18T05:55:53.179Z,80.50
2019-02-18T05:58:23.560Z,80.90
2019-02-18T06:00:53.939Z,80.20
2019-02-18T06:03:26.427Z,80.00
2019-02-18T06:05:56.751Z,80.00
2019-02-18T06:08:27.156Z,81.80
2019-02-18T06:10:59.162Z,81.00
2019-02-18T06:13:29.466Z,80.60
2019-02-18T06:15:59.812Z,80.40
2019-02-18T06:18:30.158Z,80.80
2019-02-18T06:21:00.488Z,82.60
2019-02-18T06:23:31.523Z,82.70
2019-02-18T06:26:01.893Z,82.30
2019-02-18T06:28:34.341Z,82.00
2019-02-18T06:31:04.700Z,81.30
2019-02-18T06:33:35.043Z,81.30
2019-02-18T06:36:05.399Z,81.00
2019-02-18T06:38:35.772Z,81.00
2019-02-18T06:41:06.107Z,80.80
2019-02-18T06:43:36.458Z,82.50
2019-02-18T06:46:18.491Z,82.60
2019-02-18T06:48:55.598Z,84.20
2019-02-18T06:51:26.163Z,84.20
2019-02-18T06:53:56.535Z,82.50
2019-02-18T06:56:44.528Z,82.20
2019-02-18T06:59:25.972Z,81.80
2019-02-18T07:02:04.775Z,81.80
2019-02-18T07:04:56.801Z,82.90
2019-02-18T07:07:38.683Z,82.90
2019-02-18T07:10:43.140Z,82.30
2019-02-18T07:13:13.570Z,82.90
2019-02-18T07:15:43.927Z,83.20
2019-02-18T07:18:14.259Z,82.50
2019-02-18T07:20:44.616Z,83.20
2019-02-18T07:23:14.957Z,82.20
2019-02-18T07:25:45.290Z,82.80
2019-02-18T07:28:15.636Z,83.30
2019-02-18T07:30:46.011Z,84.50
2019-02-18T07:33:17.247Z,83.60
2019-02-18T07:35:50.614Z,82.50
2019-02-18T07:38:20.968Z,83.50
2019-02-18T07:40:51.826Z,83.90
2019-02-18T07:43:23.122Z,83.90
2019-02-18T07:45:54.592Z,83.40
2019-02-18T07:48:24.962Z,83.00
2019-02-18T07:50:56.354Z,83.00
2019-02-18T07:53:32.392Z,82.00
2019-02-18T07:56:02.337Z,81.50
2019-02-18T07:58:32.690Z,80.60
2019-02-18T08:01:03.033Z,80.20
2019-02-18T08:03:36.754Z,79.40
2019-02-18T08:06:07.091Z,78.70
2019-02-18T08:08:39.077Z,78.30
2019-02-18T08:11:09.554Z,78.30
2019-02-18T08:13:40.041Z,77.00
2019-02-18T08:16:11.970Z,76.40
2019-02-18T08:18:44.489Z,76.20
2019-02-18T08:21:15.137Z,75.60
2019-02-18T08:23:47.481Z,75.80
2019-02-18T08:26:20.124Z,75.50
2019-02-18T08:28:50.788Z,74.30
2019-02-18T08:31:21.179Z,74.00
2019-02-18T08:33:51.799Z,73.50
2019-02-18T08:36:22.214Z,72.90
2019-02-18T08:38:52.690Z,72.20
2019-02-18T08:41:23.040Z,72.10
2019-02-18T08:43:53.662Z,71.40
2019-02-18T08:46:24.254Z,70.60
2019-02-18T08:48:54.851Z,70.00
2019-02-18T08:51:25.280Z,68.90
2019-02-18T08:53:55.658Z,68.90
2019-02-18T08:56:26.093Z,68.60
2019-02-18T08:58:57.673Z,67.60
2019-02-18T09:01:28.145Z,68.60
2019-02-18T09:03:58.474Z,68.30
2019-02-18T09:06:28.842Z,68.10
2019-02-18T09:08:59.149Z,68.10
2019-02-18T09:11:29.510Z,68.20
2019-02-18T09:13:59.870Z,67.80
2019-02-18T09:16:30.223Z,66.50
2019-02-18T09:19:00.558Z,66.40
2019-02-18T09:21:32.502Z,65.90
2019-02-18T09:24:10.678Z,64.50
2019-02-18T09:26:41.025Z,64.20
2019-02-18T09:29:11.339Z,62.60
2019-02-18T09:31:42.913Z,61.30
2019-02-18T09:34:13.340Z,61.20
2019-02-18T09:36:43.700Z,61.20
2019-02-18T09:39:30.525Z,60.50
2019-02-18T09:41:52.267Z,60.40
2019-02-18T09:44:22.593Z,60.30
2019-02-18T09:46:53.002Z,59.30
2019-02-18T09:49:23.343Z,59.20
2019-02-18T09:51:53.713Z,58.90
2019-02-18T09:54:24.168Z,58.90
2019-02-18T09:56:54.475Z,59.20
2019-02-18T09:59:24.815Z,59.30
2019-02-18T10:01:55.128Z,58.90
2019-02-18T10:04:25.657Z,59.00
2019-02-18T10:06:55.977Z,58.70
2019-02-18T10:09:26.335Z,57.80
2019-02-18T10:11:56.786Z,57.80
2019-02-18T10:14:27.115Z,57.30
2019-02-18T10:16:57.441Z,57.80
2019-02-18T10:19:27.835Z,56.20
2019-02-18T10:21:58.160Z,56.60
2019-02-18T10:24:28.506Z,56.00
2019-02-18T10:26:58.833Z,55.40
2019-02-18T10:29:29.179Z,55.30
2019-02-18T10:31:59.506Z,55.30
2019-02-18T10:34:36.552Z,55.20
2019-02-18T10:37:06.876Z,55.60
2019-02-18T10:39:37.743Z,54.50
2019-02-18T10:42:08.067Z,54.70
2019-02-18T10:44:38.399Z,55.30
2019-02-18T10:47:08.729Z,55.10
2019-02-18T10:49:39.399Z,54.30
2019-02-18T10:52:10.116Z,52.70
2019-02-18T10:54:40.434Z,52.00
2019-02-18T10:57:10.794Z,51.40
2019-02-18T10:59:41.163Z,48.60
2019-02-18T11:02:26.200Z,48.50
2019-02-18T11:04:56.839Z,45.50
2019-02-18T11:07:27.271Z,45.80
2019-02-18T11:09:57.675Z,44.40
2019-02-18T11:12:27.999Z,43.00
2019-02-18T11:14:59.089Z,42.10
2019-02-18T11:17:38.635Z,41.50
2019-02-18T11:20:01.562Z,39.70
2019-02-18T11:22:31.940Z,38.70
2019-02-18T11:25:02.309Z,38.50
2019-02-18T11:27:32.653Z,36.50
2019-02-18T11:30:03.038Z,36.30
2019-02-18T11:32:34.973Z,35.70
2019-02-18T11:35:05.578Z,35.20
2019-02-18T11:37:36.021Z,33.90
2019-02-18T11:40:07.102Z,32.60
2019-02-18T11:42:37.646Z,32.00
2019-02-18T11:45:09.657Z,32.20
2019-02-18T11:47:40.046Z,31.20
2019-02-18T11:50:11.599Z,31.00
2019-02-18T11:52:41.955Z,30.80
2019-02-18T11:55:12.688Z,30.90
2019-02-18T11:57:43.810Z,30.00
2019-02-18T12:00:14.427Z,29.50
2019-02-18T12:02:44.769Z,29.40
2019-02-18T12:05:17.882Z,29.10
2019-02-18T12:07:48.281Z,28.70
2019-02-18T12:10:18.698Z,28.40
2019-02-18T12:12:49.022Z,28.50
2019-02-18T12:15:19.394Z,27.80
2019-02-18T12:17:49.723Z,27.40
2019-02-18T12:20:20.084Z,26.80
2019-02-18T12:22:50.517Z,26.60
2019-02-18T12:25:21.303Z,26.20
2019-02-18T12:27:51.710Z,26.10
2019-02-18T12:30:22.173Z,25.30
2019-02-18T12:32:52.652Z,25.50
2019-02-18T12:35:30.855Z,25.60
2019-02-18T12:37:56.252Z,25.20
2019-02-18T12:40:26.707Z,24.70
2019-02-18T12:42:57.119Z,24.60
2019-02-18T12:45:27.601Z,24.30
2019-02-18T12:47:57.995Z,24.30
2019-02-18T12:50:28.376Z,24.20
2019-02-18T12:52:59.145Z,24.40
2019-02-18T12:55:29.718Z,24.30
2019-02-18T12:58:00.195Z,23.80
2019-02-18T13:00:30.580Z,23.80
2019-02-18T13:03:01.061Z,23.70
2019-02-18T13:05:31.843Z,24.00
2019-02-18T13:08:02.871Z,23.10
2019-02-18T13:10:34.814Z,22.70
2019-02-18T13:13:05.509Z,22.80
2019-02-18T13:15:36.033Z,23.10
2019-02-18T13:18:06.397Z,23.00
2019-02-18T13:20:37.064Z,23.30
2019-02-18T13:23:07.515Z,23.40
2019-02-18T13:25:37.901Z,23.80
2019-02-18T13:28:08.787Z,23.20
2019-02-18T13:30:40.344Z,22.40
2019-02-18T13:33:10.878Z,22.50
2019-02-18T13:35:41.307Z,22.70
2019-02-18T13:38:11.982Z,22.40
2019-02-18T13:40:42.309Z,22.10
2019-02-18T13:43:12.736Z,22.50
2019-02-18T13:45:43.183Z,22.70
2019-02-18T13:48:13.506Z,22.00
2019-02-18T13:50:44.002Z,21.60
2019-02-18T13:53:14.339Z,21.60
2019-02-18T13:55:44.803Z,21.20
2019-02-18T13:58:15.233Z,21.10
2019-02-18T14:00:45.770Z,21.50
2019-02-18T14:03:16.349Z,21.70
2019-02-18T14:05:48.631Z,21.60
2019-02-18T14:08:19.211Z,21.20
2019-02-18T14:10:50.420Z,21.80
2019-02-18T14:13:20.980Z,21.50
2019-02-18T14:15:51.933Z,21.00
2019-02-18T14:18:22.609Z,20.80
2019-02-18T14:20:53.363Z,20.80
2019-02-18T14:23:23.810Z,21.10
2019-02-18T14:25:54.378Z,21.00
2019-02-18T14:28:24.782Z,21.00
2019-02-18T14:30:55.358Z,21.20
2019-02-18T14:33:25.802Z,21.00
2019-02-18T14:35:56.294Z,21.10
2019-02-18T14:38:26.758Z,21.60
2019-02-18T14:40:57.317Z,21.60
2019-02-18T14:43:27.847Z,21.00
2019-02-18T14:45:58.424Z,21.90
2019-02-18T14:48:29.078Z,21.70
2019-02-18T14:50:59.643Z,21.30
2019-02-18T14:53:30.012Z,21.80
2019-02-18T14:56:00.538Z,21.40
2019-02-18T14:58:31.831Z,21.20
2019-02-18T15:01:02.249Z,21.60
2019-02-18T15:03:32.680Z,21.80
2019-02-18T15:06:03.074Z,21.70
2019-02-18T15:08:33.396Z,21.50
2019-02-18T15:11:04.087Z,21.60
2019-02-18T15:13:34.614Z,21.60
2019-02-18T15:16:06.004Z,22.00
2019-02-18T15:18:36.355Z,22.90
2019-02-18T15:21:06.718Z,22.40
2019-02-18T15:23:37.150Z,22.40
2019-02-18T15:26:07.731Z,22.20
2019-02-18T15:28:38.090Z,22.20
2019-02-18T15:31:08.906Z,22.20
2019-02-18T15:33:39.276Z,22.10
2019-02-18T15:36:09.652Z,22.30
2019-02-18T15:38:40.074Z,22.40
2019-02-18T15:41:10.514Z,22.40
2019-02-18T15:43:40.881Z,22.40
2019-02-18T15:46:13.513Z,22.50
2019-02-18T15:48:43.865Z,23.00
2019-02-18T15:51:14.209Z,23.30
2019-02-18T15:53:44.644Z,23.50
2019-02-18T15:56:15.365Z,23.90
2019-02-18T15:58:45.725Z,24.40
2019-02-18T16:01:16.131Z,25.20
2019-02-18T16:03:46.524Z,26.00
2019-02-18T16:06:17.177Z,26.90
2019-02-18T16:08:47.552Z,27.70
2019-02-18T16:11:18.134Z,28.50
2019-02-18T16:13:48.562Z,29.30
2019-02-18T16:16:18.903Z,29.80
2019-02-18T16:18:49.301Z,30.80
2019-02-18T16:21:19.690Z,31.40
2019-02-18T16:23:50.648Z,32.50
2019-02-18T16:26:20.986Z,33.40
2019-02-18T16:28:51.358Z,33.90
2019-02-18T16:31:22.116Z,34.30
2019-02-18T16:33:52.663Z,35.10
2019-02-18T16:36:23.207Z,36.00
2019-02-18T16:38:53.884Z,37.20
2019-02-18T16:41:24.359Z,37.20
2019-02-18T16:43:55.120Z,37.70
2019-02-18T16:46:26.089Z,38.30
2019-02-18T16:49:00.924Z,38.90
2019-02-18T16:51:31.547Z,40.10
2019-02-18T16:54:01.932Z,41.30
2019-02-18T16:56:32.382Z,40.70
2019-02-18T16:59:03.421Z,41.50
2019-02-18T17:01:33.913Z,42.30
2019-02-18T17:04:04.332Z,42.50
2019-02-18T17:06:34.663Z,42.60
2019-02-18T17:09:10.936Z,42.70
2019-02-18T17:11:41.452Z,42.50
2019-02-18T17:14:11.782Z,43.50
2019-02-18T17:16:42.359Z,43.40
2019-02-18T17:19:12.775Z,43.70
2019-02-18T17:21:43.258Z,44.40
2019-02-18T17:24:13.894Z,45.50
2019-02-18T17:26:44.308Z,45.60
2019-02-18T17:29:14.717Z,46.20
2019-02-18T17:31:45.223Z,47.10
2019-02-18T17:34:15.658Z,47.40
2019-02-18T17:36:46.048Z,47.20
2019-02-18T17:39:17.238Z,47.20
2019-02-18T17:41:47.676Z,47.50
2019-02-18T17:44:20.240Z,47.50
2019-02-18T17:46:51.286Z,47.90
2019-02-18T17:49:21.795Z,48.50
2019-02-18T17:51:52.242Z,48.20
2019-02-18T17:54:22.663Z,48.90
2019-02-18T17:56:53.511Z,49.50
2019-02-18T17:59:24.042Z,49.90
2019-02-18T18:01:54.609Z,50.40
2019-02-18T18:04:25.056Z,50.70
2019-02-18T18:06:55.710Z,51.70
2019-02-18T18:09:26.113Z,51.20
2019-02-18T18:11:56.559Z,52.00
2019-02-18T18:14:27.132Z,52.80
2019-02-18T18:16:58.492Z,53.60
2019-02-18T18:19:29.177Z,53.90
2019-02-18T18:22:00.684Z,54.90
2019-02-18T18:24:31.772Z,54.80
2019-02-18T18:27:02.221Z,55.60
2019-02-18T18:29:32.578Z,57.20
2019-02-18T18:32:02.911Z,58.30
2019-02-18T18:34:33.268Z,59.10
2019-02-18T18:37:03.669Z,59.80
2019-02-18T18:39:34.318Z,60.30
2019-02-18T18:42:04.699Z,60.20
2019-02-18T18:44:35.038Z,59.90
2019-02-18T18:47:05.747Z,59.80
2019-02-18T18:49:36.105Z,59.80
2019-02-18T18:52:07.194Z,59.80
2019-02-18T18:54:38.387Z,60.20
2019-02-18T18:57:08.790Z,59.50
2019-02-18T18:59:39.360Z,61.40
2019-02-18T19:02:09.702Z,62.00
2019-02-18T19:04:40.109Z,63.30
2019-02-18T19:07:10.530Z,64.30
2019-02-18T19:09:40.890Z,64.20
2019-02-18T19:12:11.595Z,64.30
2019-02-18T19:14:41.976Z,65.00
2019-02-18T19:17:12.347Z,65.40
2019-02-18T19:19:42.744Z,65.10
2019-02-18T19:22:13.095Z,64.20
2019-02-18T19:24:43.476Z,65.40
2019-02-18T19:27:13.835Z,65.70
2019-02-18T19:29:44.201Z,66.10
2019-02-18T19:32:14.568Z,66.90
2019-02-18T19:34:44.912Z,66.80
2019-02-18T19:37:15.349Z,66.50
2019-02-18T19:39:46.019Z,67.70
2019-02-18T19:42:17.239Z,66.90
2019-02-18T19:44:47.593Z,66.30
2019-02-18T19:47:17.941Z,67.10
2019-02-18T19:49:48.323Z,67.80
2019-02-18T19:52:19.030Z,68.10
2019-02-18T19:54:49.452Z,68.50
2019-02-18T19:57:22.351Z,69.30
2019-02-18T19:59:52.822Z,69.90
2019-02-18T20:02:23.206Z,70.00
2019-02-18T20:04:53.761Z,70.90
2019-02-18T20:07:24.150Z,71.00
2019-02-18T20:09:54.505Z,70.50
2019-02-18T20:12:25.008Z,70.70
2019-02-18T20:14:55.624Z,70.50
2019-02-18T20:17:26.357Z,71.80
2019-02-18T20:19:56.725Z,72.40
2019-02-18T20:22:28.992Z,71.60
2019-02-18T20:24:59.439Z,72.10
2019-02-18T20:27:29.958Z,71.60
2019-02-18T20:30:00.340Z,71.50
2019-02-18T20:32:31.386Z,71.70
2019-02-18T20:35:02.530Z,72.20
2019-02-18T20:37:34.503Z,71.80
2019-02-18T20:40:05.572Z,74.40
2019-02-18T20:42:35.902Z,74.00
2019-02-18T20:45:08.117Z,72.60
2019-02-18T20:47:38.649Z,74.50
2019-02-18T20:50:10.093Z,74.60
2019-02-18T20:52:40.480Z,74.10
2019-02-18T20:55:11.830Z,73.20
2019-02-18T20:57:42.348Z,72.80
2019-02-18T21:00:18.331Z,73.10
2019-02-18T21:02:48.988Z,72.70
2019-02-18T21:05:19.350Z,72.90
2019-02-18T21:07:49.663Z,73.40
2019-02-18T21:10:20.042Z,74.40
2019-02-18T21:12:50.394Z,72.70
2019-02-18T21:15:21.459Z,71.90
2019-02-18T21:17:51.919Z,71.50
2019-02-18T21:20:22.313Z,72.20
2019-02-18T21:22:52.831Z,72.40
2019-02-18T21:25:23.480Z,74.30
2019-02-18T21:27:53.811Z,76.90
2019-02-18T21:30:24.173Z,75.90
2019-02-18T21:32:54.501Z,73.80
2019-02-18T21:35:25.177Z,76.00
2019-02-18T21:37:55.891Z,76.80
2019-02-18T21:40:26.359Z,77.00
2019-02-18T21:42:56.795Z,77.40
2019-02-18T21:45:27.141Z,77.20
2019-02-18T21:47:57.561Z,77.20
2019-02-18T21:50:27.898Z,76.30
2019-02-18T21:52:58.231Z,75.90
2019-02-18T21:55:28.649Z,77.30
2019-02-18T21:57:59.663Z,75.60
2019-02-18T22:00:30.137Z,76.50
2019-02-18T22:03:00.783Z,75.10
2019-02-18T22:05:31.322Z,74.30
2019-02-18T22:08:01.904Z,74.20
2019-02-18T22:10:32.346Z,73.60
2019-02-18T22:13:02.748Z,74.00
2019-02-18T22:15:33.288Z,73.10
2019-02-18T22:18:03.684Z,72.80
2019-02-18T22:20:34.057Z,72.30
2019-02-18T22:23:05.016Z,72.10
2019-02-18T22:25:35.652Z,72.40
2019-02-18T22:28:06.054Z,72.10
2019-02-18T22:30:36.398Z,72.80
2019-02-18T22:33:06.750Z,73.20
2019-02-18T22:35:38.297Z,73.50
2019-02-18T22:38:08.638Z,74.00
2019-02-18T22:40:38.996Z,74.60
2019-02-18T22:43:09.325Z,75.20
2019-02-18T22:45:40.087Z,75.10
2019-02-18T22:48:10.418Z,74.40
2019-02-18T22:50:40.778Z,75.30
2019-02-18T22:53:11.101Z,75.50
2019-02-18T22:55:41.463Z,75.90
2019-02-18T22:58:12.054Z,76.40
2019-02-18T23:01:00.400Z,76.40
2019-02-18T23:03:32.056Z,76.80
2019-02-18T23:06:02.675Z,76.20
2019-02-18T23:08:36.556Z,76.20
2019-02-18T23:11:06.902Z,75.90
2019-02-18T23:13:37.315Z,75.90
2019-02-18T23:16:07.841Z,77.30
2019-02-18T23:18:38.202Z,77.20
2019-02-18T23:21:09.743Z,77.60
2019-02-18T23:23:41.747Z,77.70
2019-02-18T23:26:12.147Z,76.50
2019-02-18T23:28:42.891Z,76.40
2019-02-18T23:31:13.278Z,76.00
2019-02-18T23:33:43.657Z,76.00
2019-02-18T23:36:15.101Z,75.70
2019-02-18T23:38:45.626Z,76.40
2019-02-18T23:41:16.000Z,78.20
2019-02-18T23:43:46.502Z,80.40
2019-02-18T23:46:17.377Z,81.20
2019-02-18T23:48:47.850Z,81.50
2019-02-18T23:51:18.239Z,80.90
2019-02-18T23:53:48.846Z,80.70
2019-02-18T23:56:19.254Z,80.20
2019-02-18T23:58:49.683Z,81.50
